createdAt,value
2018-05-23T00:01:40.563Z,35.87
2018-05-23T00:05:43.288Z,35.67
2018-05-23T00:09:46.055Z,32.70
2018-05-23T00:13:48.738Z,29.40
2018-05-23T00:17:51.554Z,35.57
2018-05-23T00:21:55.038Z,32.00
2018-05-23T00:25:58.809Z,29.17
2018-05-23T00:30:01.584Z,37.83
2018-05-23T00:34:04.345Z,30.47
2018-05-23T00:38:07.040Z,28.47
2018-05-23T00:42:09.828Z,28.10
2018-05-23T00:46:13.406Z,30.20
2018-05-23T00:50:16.119Z,28.90
2018-05-23T00:54:19.643Z,32.00
2018-05-23T00:58:22.533Z,28.30
2018-05-23T01:02:25.256Z,36.50
2018-05-23T01:06:28.717Z,29.20
2018-05-23T01:10:31.433Z,32.37
2018-05-23T01:14:34.206Z,37.90
2018-05-23T01:18:36.914Z,31.47
2018-05-23T01:22:39.765Z,33.10
2018-05-23T01:26:42.487Z,43.13
2018-05-23T01:30:45.306Z,36.27
2018-05-23T01:34:48.004Z,37.10
2018-05-23T01:38:50.766Z,34.93
2018-05-23T01:42:53.555Z,32.70
2018-05-23T01:46:56.361Z,31.90
2018-05-23T01:50:59.142Z,31.63
2018-05-23T01:55:01.900Z,30.93
2018-05-23T01:59:04.676Z,37.77
2018-05-23T02:03:07.407Z,33.57
2018-05-23T02:07:10.159Z,35.50
2018-05-23T02:11:12.905Z,45.23
2018-05-23T02:15:15.749Z,43.20
2018-05-23T02:19:18.449Z,27.17
2018-05-23T02:23:21.169Z,37.07
2018-05-23T02:27:23.881Z,40.03
2018-05-23T02:31:26.648Z,32.90
2018-05-23T02:35:29.384Z,33.00
2018-05-23T02:39:32.144Z,30.63
2018-05-23T02:43:34.834Z,30.67
2018-05-23T02:47:37.549Z,31.73
2018-05-23T02:51:41.003Z,36.37
2018-05-23T02:55:44.541Z,34.67
2018-05-23T02:59:47.259Z,28.53
2018-05-23T03:03:49.957Z,25.87
2018-05-23T03:07:52.779Z,29.20
2018-05-23T03:11:55.492Z,33.10
2018-05-23T03:15:58.206Z,34.37
2018-05-23T03:20:01.783Z,32.40
2018-05-23T03:24:04.539Z,35.00
2018-05-23T03:28:07.229Z,29.20
2018-05-23T03:32:10.003Z,27.17
2018-05-23T03:36:13.501Z,31.30
2018-05-23T03:40:16.213Z,32.00
2018-05-23T03:44:19.694Z,31.33
2018-05-23T03:48:22.499Z,40.67
2018-05-23T03:52:25.294Z,37.20
2018-05-23T03:56:28.039Z,32.73
2018-05-23T04:00:42.700Z,26.77
2018-05-23T04:04:57.302Z,26.73
2018-05-23T04:09:01.269Z,28.50
2018-05-23T04:13:04.825Z,29.87
2018-05-23T04:17:07.550Z,27.83
2018-05-23T04:21:10.331Z,32.73
2018-05-23T04:25:13.036Z,29.53
2018-05-23T04:29:15.827Z,27.20
2018-05-23T04:33:18.677Z,27.57
2018-05-23T04:37:22.211Z,33.33
2018-05-23T04:41:24.932Z,30.93
2018-05-23T04:45:27.872Z,28.20
2018-05-23T04:49:30.586Z,32.17
2018-05-23T04:53:34.108Z,29.10
2018-05-23T04:57:37.659Z,31.73
2018-05-23T05:01:40.401Z,28.03
2018-05-23T05:05:44.009Z,29.97
2018-05-23T05:09:46.701Z,25.83
2018-05-23T05:13:49.427Z,30.30
2018-05-23T05:17:52.164Z,25.10
2018-05-23T05:21:55.705Z,35.90
2018-05-23T05:25:58.409Z,21.03
2018-05-23T05:30:01.221Z,22.67
2018-05-23T05:34:04.041Z,20.03
2018-05-23T05:38:06.800Z,17.97
2018-05-23T05:42:09.517Z,19.27
2018-05-23T05:46:12.987Z,21.03
2018-05-23T05:50:20.241Z,19.10
2018-05-23T05:54:22.944Z,19.27
2018-05-23T05:58:25.644Z,17.00
2018-05-23T06:02:28.414Z,24.63
2018-05-23T06:06:31.959Z,13.33
2018-05-23T06:10:34.649Z,12.97
2018-05-23T06:14:37.344Z,15.03
2018-05-23T06:18:40.075Z,13.27
2018-05-23T06:22:43.635Z,12.90
2018-05-23T06:26:46.421Z,13.53
2018-05-23T06:30:49.384Z,12.63
2018-05-23T06:34:52.106Z,13.90
2018-05-23T06:38:54.813Z,25.47
2018-05-23T06:42:57.500Z,12.20
2018-05-23T06:47:00.214Z,12.13
2018-05-23T06:51:03.791Z,12.17
2018-05-23T06:55:06.503Z,12.50
2018-05-23T06:59:09.283Z,20.60
2018-05-23T07:03:12.007Z,12.93
2018-05-23T07:07:21.141Z,11.32
2018-05-23T07:11:23.993Z,10.20
2018-05-23T07:15:26.711Z,11.10
2018-05-23T07:19:29.430Z,9.57
2018-05-23T07:23:32.276Z,9.30
2018-05-23T07:27:34.994Z,10.63
2018-05-23T07:31:37.716Z,8.03
2018-05-23T07:35:40.464Z,9.82
2018-05-23T07:39:43.149Z,8.27
2018-05-23T07:43:46.639Z,8.57
2018-05-23T07:47:49.400Z,9.47
2018-05-23T07:51:52.109Z,7.70
2018-05-23T07:55:54.853Z,7.70
2018-05-23T07:59:58.441Z,8.10
2018-05-23T08:04:01.132Z,7.90
2018-05-23T08:08:03.884Z,8.27
2018-05-23T08:12:06.646Z,7.50
2018-05-23T08:16:10.129Z,7.33
2018-05-23T08:20:14.355Z,8.13
2018-05-23T08:24:19.109Z,7.83
2018-05-23T08:28:22.000Z,12.75
2018-05-23T08:32:24.713Z,7.63
2018-05-23T08:36:27.534Z,11.03
2018-05-23T08:40:30.295Z,7.90
2018-05-23T08:44:33.018Z,6.30
2018-05-23T08:48:35.829Z,5.50
2018-05-23T08:52:38.629Z,7.30
2018-05-23T08:56:42.152Z,7.93
2018-05-23T09:00:44.933Z,6.30
2018-05-23T09:04:48.577Z,6.47
2018-05-23T09:08:51.296Z,8.80
2018-05-23T09:12:54.064Z,6.70
2018-05-23T09:16:56.845Z,8.00
2018-05-23T09:21:00.327Z,7.90
2018-05-23T09:25:03.913Z,7.33
2018-05-23T09:29:06.658Z,7.17
2018-05-23T09:33:09.421Z,7.60
2018-05-23T09:37:12.138Z,7.33
2018-05-23T09:41:14.912Z,7.00
2018-05-23T09:45:17.610Z,7.03
2018-05-23T09:49:20.326Z,7.80
2018-05-23T09:53:23.054Z,7.33
2018-05-23T09:57:26.543Z,6.97
2018-05-23T10:01:29.356Z,7.50
2018-05-23T10:05:32.174Z,9.63
2018-05-23T10:09:34.892Z,6.83
2018-05-23T10:13:37.657Z,8.30
2018-05-23T10:17:41.133Z,7.47
2018-05-23T10:21:44.681Z,7.30
2018-05-23T10:25:48.201Z,6.67
2018-05-23T10:29:51.797Z,7.80
2018-05-23T10:33:55.287Z,9.20
2018-05-23T10:37:57.997Z,7.90
2018-05-23T10:42:00.701Z,8.27
2018-05-23T10:46:03.473Z,14.30
2018-05-23T10:50:06.195Z,6.77
2018-05-23T10:54:08.946Z,8.20
2018-05-23T10:58:11.653Z,7.53
2018-05-23T11:02:14.392Z,8.87
2018-05-23T11:06:17.112Z,7.33
2018-05-23T11:10:20.603Z,8.13
2018-05-23T11:14:23.326Z,6.80
2018-05-23T11:18:26.849Z,7.87
2018-05-23T11:22:29.571Z,7.10
2018-05-23T11:26:33.176Z,6.53
2018-05-23T11:30:35.958Z,6.40
2018-05-23T11:34:39.462Z,6.80
2018-05-23T11:38:42.945Z,5.27
2018-05-23T11:42:45.695Z,6.07
2018-05-23T11:46:48.419Z,6.47
2018-05-23T11:50:51.127Z,6.17
2018-05-23T11:54:53.934Z,7.10
2018-05-23T11:58:56.676Z,6.90
2018-05-23T12:02:59.416Z,7.13
2018-05-23T12:07:02.137Z,7.77
2018-05-23T12:11:04.880Z,6.83
2018-05-23T12:15:07.829Z,5.87
2018-05-23T12:19:10.673Z,5.23
2018-05-23T12:23:14.827Z,6.67
2018-05-23T12:27:17.769Z,6.40
2018-05-23T12:31:22.068Z,5.87
2018-05-23T12:35:31.666Z,6.90
2018-05-23T12:39:48.908Z,8.43
2018-05-23T12:43:53.068Z,6.00
2018-05-23T12:48:04.018Z,6.43
2018-05-23T12:56:55.949Z,7.33
2018-05-23T13:01:01.342Z,8.50
2018-05-23T13:13:34.329Z,5.83
2018-05-23T13:17:37.101Z,6.17
2018-05-23T13:21:39.844Z,5.73
2018-05-23T13:25:43.495Z,7.83
2018-05-23T13:29:47.049Z,5.83
2018-05-23T13:33:49.789Z,6.20
2018-05-23T13:37:53.542Z,4.93
2018-05-23T13:41:56.421Z,9.40
2018-05-23T13:46:00.272Z,5.90
2018-05-23T13:50:03.405Z,5.80
2018-05-23T13:54:06.994Z,6.40
2018-05-23T13:58:09.779Z,6.30
2018-05-23T14:02:13.367Z,5.53
2018-05-23T14:06:16.339Z,6.37
2018-05-23T14:10:19.090Z,5.40
2018-05-23T14:14:23.924Z,7.30
2018-05-23T14:18:27.499Z,7.63
2018-05-23T14:22:30.230Z,6.43
2018-05-23T14:26:32.942Z,6.40
2018-05-23T14:30:36.543Z,7.33
2018-05-23T14:34:39.400Z,7.70
2018-05-23T14:38:42.292Z,7.50
2018-05-23T14:42:45.132Z,7.80
2018-05-23T14:46:48.137Z,10.80
2018-05-23T14:50:51.106Z,7.53
2018-05-23T14:54:54.622Z,7.77
2018-05-23T14:58:57.402Z,8.27
2018-05-23T15:03:00.358Z,8.60
2018-05-23T15:07:03.079Z,8.87
2018-05-23T15:11:06.576Z,7.67
2018-05-23T15:15:09.984Z,8.20
2018-05-23T15:19:12.676Z,9.10
2018-05-23T15:23:15.550Z,9.83
2018-05-23T15:27:18.286Z,7.47
2018-05-23T15:31:21.055Z,8.93
2018-05-23T15:35:23.928Z,6.57
2018-05-23T15:39:26.681Z,6.37
2018-05-23T15:43:30.179Z,8.20
2018-05-23T15:47:32.944Z,9.90
2018-05-23T15:51:35.651Z,11.77
2018-05-23T15:55:38.368Z,10.10
2018-05-23T15:59:41.081Z,11.17
2018-05-23T16:03:44.688Z,12.30
2018-05-23T16:07:47.878Z,14.20
2018-05-23T16:11:50.695Z,18.23
2018-05-23T16:15:55.070Z,13.33
2018-05-23T16:19:57.787Z,17.67
2018-05-23T16:24:00.497Z,17.20
2018-05-23T16:28:03.451Z,20.03
2018-05-23T16:32:06.211Z,16.73
2018-05-23T16:36:09.697Z,14.87
2018-05-23T16:40:12.421Z,15.90
2018-05-23T16:44:15.414Z,17.33
2018-05-23T16:48:18.156Z,14.57
2018-05-23T16:52:21.845Z,14.73
2018-05-23T16:56:24.637Z,12.87
2018-05-23T17:00:27.661Z,13.83
2018-05-23T17:04:31.605Z,14.77
2018-05-23T17:08:34.416Z,13.40
2018-05-23T17:12:38.176Z,24.93
2018-05-23T17:16:40.795Z,14.23
2018-05-23T17:20:44.693Z,14.47
2018-05-23T17:24:47.603Z,15.63
2018-05-23T17:28:50.403Z,14.13
2018-05-23T17:32:53.198Z,14.50
2018-05-23T17:36:56.001Z,16.63
2018-05-23T17:40:59.996Z,13.87
2018-05-23T17:45:03.043Z,14.70
2018-05-23T17:49:06.650Z,14.53
2018-05-23T17:53:11.818Z,14.40
2018-05-23T17:57:14.962Z,17.83
2018-05-23T18:01:17.952Z,15.23
2018-05-23T18:05:21.432Z,15.37
2018-05-23T18:09:24.520Z,15.83
2018-05-23T18:13:27.828Z,13.47
2018-05-23T18:17:30.896Z,15.47
2018-05-23T18:21:33.693Z,15.53
2018-05-23T18:25:36.801Z,15.40
2018-05-23T18:29:39.971Z,18.17
2018-05-23T18:33:42.921Z,18.20
2018-05-23T18:37:46.052Z,18.50
2018-05-23T18:41:48.801Z,22.10
2018-05-23T18:45:51.795Z,19.97
2018-05-23T18:49:54.840Z,21.83
2018-05-23T18:53:57.698Z,20.53
2018-05-23T18:58:00.511Z,22.23
2018-05-23T19:02:03.504Z,23.27
2018-05-23T19:06:06.448Z,24.83
2018-05-23T19:10:09.176Z,23.30
2018-05-23T19:14:12.806Z,19.40
2018-05-23T19:18:16.273Z,23.23
2018-05-23T19:22:19.433Z,19.27
2018-05-23T19:26:23.182Z,17.33
2018-05-23T19:30:26.108Z,20.87
2018-05-23T19:34:29.040Z,19.87
2018-05-23T19:38:32.981Z,21.13
2018-05-23T19:42:35.812Z,21.30
2018-05-23T19:46:39.573Z,20.73
2018-05-23T19:50:42.572Z,21.57
2018-05-23T19:54:45.513Z,19.77
2018-05-23T19:58:48.379Z,23.80
2018-05-23T20:02:52.204Z,21.10
2018-05-23T20:06:56.658Z,22.57
2018-05-23T20:11:00.191Z,23.50
2018-05-23T20:15:03.475Z,23.47
2018-05-23T20:19:09.285Z,22.40
2018-05-23T20:23:15.547Z,22.43
2018-05-23T20:27:23.798Z,20.93
2018-05-23T20:31:30.354Z,21.27
2018-05-23T20:35:38.246Z,21.87
2018-05-23T20:39:44.673Z,19.90
2018-05-23T20:43:52.910Z,20.70
2018-05-23T20:48:01.064Z,22.03
2018-05-23T20:52:07.730Z,20.93
2018-05-23T20:56:14.436Z,22.63
2018-05-23T21:00:21.694Z,21.37
2018-05-23T21:04:29.299Z,23.03
2018-05-23T21:08:37.086Z,18.90
2018-05-23T21:12:44.360Z,20.97
2018-05-23T21:16:51.682Z,22.70
2018-05-23T21:20:59.945Z,18.83
2018-05-23T21:25:06.359Z,20.47
2018-05-23T21:29:13.488Z,22.63
2018-05-23T21:33:20.237Z,23.53
2018-05-23T21:37:27.343Z,22.40
2018-05-23T21:41:34.557Z,23.47
2018-05-23T21:45:43.275Z,23.57
2018-05-23T21:49:49.195Z,25.80
2018-05-23T21:53:57.571Z,24.00
2018-05-23T21:58:03.364Z,26.20
2018-05-23T22:02:10.293Z,24.40
2018-05-23T22:06:16.371Z,26.37
2018-05-23T22:10:23.693Z,26.70
2018-05-23T22:14:30.649Z,30.03
2018-05-23T22:18:37.053Z,27.17
2018-05-23T22:22:44.399Z,24.60
2018-05-23T22:26:50.513Z,23.67
2018-05-23T22:30:53.877Z,27.37
2018-05-23T22:34:56.738Z,28.53
2018-05-23T22:38:59.550Z,23.63
2018-05-23T22:43:02.369Z,27.23
2018-05-23T22:47:06.338Z,28.17
2018-05-23T22:51:09.277Z,27.70
2018-05-23T22:55:12.549Z,26.73
2018-05-23T22:59:15.669Z,29.63
2018-05-23T23:03:19.784Z,30.27
2018-05-23T23:07:22.742Z,30.47
2018-05-23T23:11:26.213Z,29.23
2018-05-23T23:15:29.917Z,31.03
2018-05-23T23:19:32.945Z,31.23
2018-05-23T23:23:35.871Z,29.10
2018-05-23T23:27:39.000Z,30.27
2018-05-23T23:31:42.233Z,28.50
2018-05-23T23:35:45.319Z,32.30
2018-05-23T23:39:48.289Z,33.70
2018-05-23T23:43:51.530Z,35.00
2018-05-23T23:47:54.509Z,38.57
2018-05-23T23:51:57.761Z,37.27
2018-05-23T23:56:01.489Z,35.50
